Terminal Aerodrome Forecast
Issued by NWS Medford, OR

Home | Current Version | Previous Version | Text Only | Print | Product List | Glossary On
Versions: 1 2 3 4 5 6 7 8 9 10 11 12 13 14 15 16 17 18 19
000
FTUS46 KMFR 100932 AAA
TAFMFR
TAF AMD
KMFR 100932Z 1010/1106 00000KT 2SM -RA BR BKN003 OVC040
      TEMPO 1010/1012 6SM -RA BR SCT004 SCT012 OVC040
     FM101500 VRB03KT 2SM -RA BR OVC002
     FM101800 29005KT 4SM BR BKN004 BKN015 BKN040
     FM102000 31004KT P6SM SCT006 BKN020 BKN040
     FM102200 32006KT P6SM BKN050=

USA.gov is the U.S. government's official web portal to all federal, state and local government web resources and services.